Time;durP1;ratioP1;P1;durP2;ratioP2;P2;SDS_P1;SDS_P2;PMS_P1;PMS_P2;Temp;Humidity;BMP_temperature;BMP_pressure;BME280_temperature;BME280_humidity;BME280_pressure;Samples;Min_cycle;Max_cycle;Signal;HPM_P1;HPM_P2
2021/09/27 00:01:17;;;;;;;9.93;4.85;;;;;;;;;;5010752;28;20022;-62
2021/09/27 00:03:43;;;;;;;15.40;5.50;;;;;;;;;;5010623;28;20129;-61
2021/09/27 00:06:10;;;;;;;11.70;4.78;;;;;;;;;;5010171;28;20509;-62
2021/09/27 00:08:36;;;;;;;6.70;4.15;;;;;;;;;;5010044;28;20026;-62
2021/09/27 00:11:02;;;;;;;8.45;4.40;;;;;;;;;;5010154;28;20029;-62
2021/09/27 00:13:30;;;;;;;8.25;4.30;;;;;;;;;;5009923;28;20449;-63
2021/09/27 00:15:57;;;;;;;12.52;4.70;;;;;;;;;;5029666;28;20381;-62
2021/09/27 00:18:24;;;;;;;10.50;5.03;;;;;;;;;;5029872;28;20447;-62
2021/09/27 00:20:52;;;;;;;8.27;4.55;;;;;;;;;;5029666;28;20053;-62
2021/09/27 00:23:18;;;;;;;11.55;5.40;;;;;;;;;;5029616;28;20026;-62
2021/09/27 00:25:44;;;;;;;12.95;5.65;;;;;;;;;;5029495;28;20103;-62
2021/09/27 00:28:11;;;;;;;9.25;5.28;;;;;;;;;;5029573;28;20028;-62
2021/09/27 00:30:37;;;;;;;7.80;5.65;;;;;;;;;;5029691;28;20484;-61
2021/09/27 00:33:04;;;;;;;7.75;5.57;;;;;;;;;;5029704;28;20037;-61
2021/09/27 00:35:32;;;;;;;8.07;5.47;;;;;;;;;;5097749;28;20025;-62
2021/09/27 00:37:58;;;;;;;8.75;5.53;;;;;;;;;;5029542;28;20464;-61
2021/09/27 00:40:26;;;;;;;7.70;5.32;;;;;;;;;;5032888;28;20066;-62
2021/09/27 00:42:53;;;;;;;11.18;5.82;;;;;;;;;;5033329;28;20362;-61
2021/09/27 00:45:20;;;;;;;9.10;5.82;;;;;;;;;;5036387;27;20030;-62
2021/09/27 00:47:46;;;;;;;8.00;6.13;;;;;;;;;;5049281;27;20476;-62
2021/09/27 00:50:14;;;;;;;9.07;5.57;;;;;;;;;;5047170;27;20038;-61
2021/09/27 00:52:40;;;;;;;6.45;5.35;;;;;;;;;;5013776;28;20026;-62
2021/09/27 00:55:08;;;;;;;7.03;5.90;;;;;;;;;;5033663;27;20027;-62
2021/09/27 00:57:34;;;;;;;7.55;5.18;;;;;;;;;;5023178;28;20034;-62
2021/09/27 01:00:00;;;;;;;11.82;6.15;;;;;;;;;;5024472;27;20366;-62
2021/09/27 01:02:26;;;;;;;7.60;5.82;;;;;;;;;;5033610;27;20025;-62
2021/09/27 01:04:53;;;;;;;10.25;6.18;;;;;;;;;;5033293;28;20026;-62
2021/09/27 01:07:29;;;;;;;8.27;5.38;;;;;;;;;;5032639;28;20025;-62
2021/09/27 01:10:14;;;;;;;10.77;5.15;;;;;;;;;;5032486;28;20048;-61
2021/09/27 01:12:42;;;;;;;7.35;5.63;;;;;;;;;;5032406;28;20030;-61
2021/09/27 01:15:18;;;;;;;9.23;5.70;;;;;;;;;;5032748;28;20030;-62
2021/09/27 01:17:57;;;;;;;10.02;5.93;;;;;;;;;;5031487;28;20051;-61
2021/09/27 01:20:26;;;;;;;8.52;5.80;;;;;;;;;;5032879;28;20092;-61
2021/09/27 01:22:58;;;;;;;9.32;5.65;;;;;;;;;;5032286;28;20078;-62
2021/09/27 01:25:43;;;;;;;9.10;5.60;;;;;;;;;;5032349;28;20210;-62
2021/09/27 01:28:24;;;;;;;6.40;5.15;;;;;;;;;;5032291;28;20028;-62
2021/09/27 01:31:09;;;;;;;6.13;5.30;;;;;;;;;;5032332;28;20040;-61
2021/09/27 01:33:40;;;;;;;6.50;5.40;;;;;;;;;;5032312;28;20082;-61
2021/09/27 01:36:09;;;;;;;7.45;5.82;;;;;;;;;;5032415;28;20021;-61
2021/09/27 01:38:35;;;;;;;7.70;5.78;;;;;;;;;;5032019;28;20112;-62
2021/09/27 01:41:21;;;;;;;6.72;5.32;;;;;;;;;;5086344;27;20115;-61
2021/09/27 01:43:47;;;;;;;8.20;5.80;;;;;;;;;;5136665;27;20493;-61
2021/09/27 01:46:26;;;;;;;8.98;5.53;;;;;;;;;;5136635;27;20051;-61
2021/09/27 01:49:15;;;;;;;6.82;5.57;;;;;;;;;;5054557;27;20465;-62
2021/09/27 01:51:51;;;;;;;8.93;5.60;;;;;;;;;;5086028;27;20023;-62
2021/09/27 01:54:17;;;;;;;7.60;5.25;;;;;;;;;;5136389;27;20454;-62
2021/09/27 01:56:51;;;;;;;11.23;5.70;;;;;;;;;;5136626;27;20034;-61
2021/09/27 01:59:37;;;;;;;7.78;5.88;;;;;;;;;;5136331;27;20451;-61
2021/09/27 02:02:13;;;;;;;8.25;5.10;;;;;;;;;;5136176;27;20064;-61
2021/09/27 02:04:39;;;;;;;10.05;5.85;;;;;;;;;;5136423;27;20079;-61
2021/09/27 02:07:05;;;;;;;11.00;5.85;;;;;;;;;;5136455;27;20102;-62
2021/09/27 02:09:34;;;;;;;8.13;6.05;;;;;;;;;;5117595;27;20031;-61
2021/09/27 02:12:12;;;;;;;9.98;6.25;;;;;;;;;;5135796;27;20035;-62
2021/09/27 02:14:42;;;;;;;9.02;5.13;;;;;;;;;;5135917;27;20030;-62
2021/09/27 02:17:11;;;;;;;7.05;4.85;;;;;;;;;;5135895;27;20073;-62
2021/09/27 02:19:40;;;;;;;5.63;5.03;;;;;;;;;;5058498;27;20026;-62
2021/09/27 02:22:13;;;;;;;9.23;5.30;;;;;;;;;;5011903;28;20034;-61
2021/09/27 02:24:47;;;;;;;11.35;5.60;;;;;;;;;;5011599;28;20049;-61
2021/09/27 02:27:14;;;;;;;8.10;5.10;;;;;;;;;;5011806;28;20121;-62
2021/09/27 02:29:40;;;;;;;9.00;4.70;;;;;;;;;;5011914;28;20033;-62
2021/09/27 02:32:09;;;;;;;8.77;5.55;;;;;;;;;;5012040;28;20038;-62
2021/09/27 02:34:54;;;;;;;7.88;4.50;;;;;;;;;;5011598;28;20037;-61
2021/09/27 02:37:24;;;;;;;6.88;4.68;;;;;;;;;;5079608;28;20033;-62
2021/09/27 02:40:02;;;;;;;7.20;4.93;;;;;;;;;;5014719;27;20033;-62
2021/09/27 02:42:31;;;;;;;6.20;4.95;;;;;;;;;;5135461;27;20064;-62
2021/09/27 02:44:57;;;;;;;5.55;4.45;;;;;;;;;;5135631;27;20110;-62
2021/09/27 02:47:27;;;;;;;8.40;4.90;;;;;;;;;;5135338;27;20065;-62
2021/09/27 02:49:57;;;;;;;5.15;4.65;;;;;;;;;;5011346;28;20026;-62
2021/09/27 02:52:24;;;;;;;10.95;5.25;;;;;;;;;;5121850;27;20031;-62
2021/09/27 02:54:52;;;;;;;9.80;4.80;;;;;;;;;;5135125;27;20019;-62
2021/09/27 02:57:27;;;;;;;5.35;4.57;;;;;;;;;;5134659;27;20152;-62
2021/09/27 02:59:56;;;;;;;9.18;5.20;;;;;;;;;;5135116;27;20027;-61
2021/09/27 03:02:26;;;;;;;4.57;4.18;;;;;;;;;;5134174;27;20032;-61
2021/09/27 03:05:08;;;;;;;11.80;4.80;;;;;;;;;;5135494;27;20020;-61
2021/09/27 03:07:43;;;;;;;10.80;5.20;;;;;;;;;;5011094;28;20088;-62
2021/09/27 03:10:17;;;;;;;5.82;4.35;;;;;;;;;;5010654;28;20029;-62
2021/09/27 03:12:52;;;;;;;4.45;4.05;;;;;;;;;;5010862;28;20034;-62
2021/09/27 03:15:37;;;;;;;7.03;4.97;;;;;;;;;;5010838;28;20050;-62
2021/09/27 03:18:17;;;;;;;12.27;4.70;;;;;;;;;;5011167;28;20035;-62
2021/09/27 03:20:43;;;;;;;5.18;4.30;;;;;;;;;;5010758;28;20049;-62
2021/09/27 03:23:29;;;;;;;10.13;4.57;;;;;;;;;;5010851;28;20437;-62
2021/09/27 03:26:11;;;;;;;10.48;5.03;;;;;;;;;;5009780;28;20389;-61
2021/09/27 03:28:47;;;;;;;9.00;4.28;;;;;;;;;;5011082;28;20130;-61
2021/09/27 03:31:25;;;;;;;10.05;4.00;;;;;;;;;;5010570;28;20393;-62
2021/09/27 03:33:57;;;;;;;9.38;4.40;;;;;;;;;;5010386;28;20093;-62
2021/09/27 03:36:30;;;;;;;7.75;4.80;;;;;;;;;;5010622;28;20030;-61
2021/09/27 03:39:07;;;;;;;5.57;4.18;;;;;;;;;;5090529;28;20470;-61
2021/09/27 03:41:53;;;;;;;5.85;4.28;;;;;;;;;;5101943;27;20038;-62
2021/09/27 03:44:30;;;;;;;7.88;4.50;;;;;;;;;;5123241;27;20031;-61
2021/09/27 03:47:02;;;;;;;6.85;4.40;;;;;;;;;;5134038;27;20091;-62
2021/09/27 03:49:33;;;;;;;5.50;4.73;;;;;;;;;;5134106;27;20023;-61
2021/09/27 03:52:20;;;;;;;8.43;5.15;;;;;;;;;;5133567;27;20632;-62
2021/09/27 03:54:55;;;;;;;8.88;5.18;;;;;;;;;;5060419;27;20041;-62
2021/09/27 03:57:35;;;;;;;12.10;4.60;;;;;;;;;;5009903;28;20030;-62
2021/09/27 04:00:27;;;;;;;6.68;5.05;;;;;;;;;;5010331;28;20022;-62
2021/09/27 04:02:59;;;;;;;12.40;4.55;;;;;;;;;;5011055;28;20469;-62
2021/09/27 04:05:48;;;;;;;14.80;4.70;;;;;;;;;;5077725;28;20042;-61
2021/09/27 04:08:31;;;;;;;8.85;5.05;;;;;;;;;;5010206;28;20113;-62
2021/09/27 04:11:08;;;;;;;9.50;6.15;;;;;;;;;;5009850;28;20087;-62
2021/09/27 04:13:52;;;;;;;7.95;4.95;;;;;;;;;;5009283;28;20126;-62
2021/09/27 04:16:47;;;;;;;5.05;4.47;;;;;;;;;;5010042;28;20025;-62
2021/09/27 04:19:23;;;;;;;10.38;6.07;;;;;;;;;;5010978;28;20184;-62
2021/09/27 04:22:00;;;;;;;8.13;4.65;;;;;;;;;;5077861;28;20428;-62
2021/09/27 04:24:26;;;;;;;8.40;4.80;;;;;;;;;;5009802;28;20037;-61
2021/09/27 04:27:01;;;;;;;11.75;4.32;;;;;;;;;;5008989;28;20026;-61
2021/09/27 04:29:47;;;;;;;6.63;4.47;;;;;;;;;;5009866;28;20105;-62
2021/09/27 04:32:16;;;;;;;11.02;4.03;;;;;;;;;;5020244;28;20042;-61
2021/09/27 04:34:47;;;;;;;8.55;4.32;;;;;;;;;;5010146;28;20113;-61
2021/09/27 04:37:17;;;;;;;9.27;4.10;;;;;;;;;;5009796;28;20465;-62
2021/09/27 04:39:43;;;;;;;8.82;4.10;;;;;;;;;;5009539;28;20037;-62
2021/09/27 04:42:10;;;;;;;13.02;4.05;;;;;;;;;;5131900;28;20023;-61
2021/09/27 04:44:54;;;;;;;11.70;4.18;;;;;;;;;;5133326;28;20382;-62
2021/09/27 04:47:35;;;;;;;11.05;4.10;;;;;;;;;;5133397;28;20098;-62
2021/09/27 04:50:20;;;;;;;4.97;4.47;;;;;;;;;;5132867;27;20090;-62
2021/09/27 04:52:46;;;;;;;7.20;3.70;;;;;;;;;;5009331;28;20038;-62
2021/09/27 04:55:23;;;;;;;7.22;4.10;;;;;;;;;;5093449;28;20029;-62
2021/09/27 04:58:02;;;;;;;10.15;4.25;;;;;;;;;;5076984;28;20037;-62
2021/09/27 05:00:28;;;;;;;6.18;3.83;;;;;;;;;;5009480;28;20022;-62
2021/09/27 05:02:54;;;;;;;4.68;4.13;;;;;;;;;;5009519;28;20119;-62
2021/09/27 05:05:35;;;;;;;8.30;5.97;;;;;;;;;;5009329;28;20037;-62
2021/09/27 05:08:04;;;;;;;9.68;4.55;;;;;;;;;;5009550;28;20473;-62
2021/09/27 05:10:55;;;;;;;6.40;3.80;;;;;;;;;;5008973;28;20034;-62
2021/09/27 05:13:27;;;;;;;13.30;3.88;;;;;;;;;;5009142;28;20433;-62
2021/09/27 05:15:56;;;;;;;6.30;3.83;;;;;;;;;;5076954;28;20026;-62
2021/09/27 05:18:34;;;;;;;9.40;3.90;;;;;;;;;;5077093;28;20041;-61
2021/09/27 05:21:19;;;;;;;12.27;6.97;;;;;;;;;;5009292;28;20026;-62
2021/09/27 05:23:54;;;;;;;18.67;6.38;;;;;;;;;;5070077;28;20063;-61
2021/09/27 05:26:26;;;;;;;8.65;4.20;;;;;;;;;;5086631;27;20509;-61
2021/09/27 05:28:55;;;;;;;10.13;5.57;;;;;;;;;;5060408;27;20492;-62
2021/09/27 05:31:47;;;;;;;13.30;4.85;;;;;;;;;;5023832;28;20034;-62
2021/09/27 05:34:22;;;;;;;12.70;5.40;;;;;;;;;;5012455;28;20033;-62
2021/09/27 05:36:51;;;;;;;13.75;4.95;;;;;;;;;;5019997;28;20132;-62
2021/09/27 05:39:29;;;;;;;10.85;4.57;;;;;;;;;;5026870;27;20380;-61
2021/09/27 05:41:55;;;;;;;4.97;4.47;;;;;;;;;;5035699;27;20025;-62
2021/09/27 05:44:31;;;;;;;8.63;4.13;;;;;;;;;;5032136;28;20385;-62
2021/09/27 05:47:11;;;;;;;6.97;4.60;;;;;;;;;;5052576;27;20023;-61
2021/09/27 05:49:49;;;;;;;10.82;4.65;;;;;;;;;;5136479;27;20104;-62
2021/09/27 05:52:17;;;;;;;9.15;4.68;;;;;;;;;;5136504;27;20118;-60
2021/09/27 05:55:04;;;;;;;6.18;4.72;;;;;;;;;;5136321;27;20011;-60
2021/09/27 05:57:36;;;;;;;7.03;5.72;;;;;;;;;;5090140;27;20614;-60
2021/09/27 06:00:11;;;;;;;11.37;4.90;;;;;;;;;;5072770;27;20023;-62
2021/09/27 06:03:07;;;;;;;8.20;5.25;;;;;;;;;;5076060;27;20027;-60
2021/09/27 06:05:57;;;;;;;13.27;5.15;;;;;;;;;;5056823;27;20052;-61
2021/09/27 06:08:31;;;;;;;6.70;4.47;;;;;;;;;;5055060;27;20112;-61
2021/09/27 06:11:00;;;;;;;14.50;7.20;;;;;;;;;;5106231;27;20029;-60
2021/09/27 06:13:32;;;;;;;9.63;4.45;;;;;;;;;;5089067;27;20030;-60
2021/09/27 06:15:58;;;;;;;10.48;5.38;;;;;;;;;;5065092;27;20030;-60
2021/09/27 06:18:27;;;;;;;6.78;5.32;;;;;;;;;;5079324;27;20015;-61
2021/09/27 06:20:53;;;;;;;9.25;4.43;;;;;;;;;;5076175;27;20025;-61
2021/09/27 06:23:25;;;;;;;20.42;5.38;;;;;;;;;;5068729;27;20533;-61
2021/09/27 06:26:04;;;;;;;10.05;4.82;;;;;;;;;;5044609;27;20051;-61
2021/09/27 06:28:48;;;;;;;14.82;5.10;;;;;;;;;;5059632;27;20460;-61
2021/09/27 06:31:25;;;;;;;55.17;5.80;;;;;;;;;;5086217;28;20045;-60
2021/09/27 06:33:53;;;;;;;31.92;5.72;;;;;;;;;;5011869;28;20083;-60
2021/09/27 06:36:24;;;;;;;30.80;7.80;;;;;;;;;;5011311;28;20026;-59
2021/09/27 06:38:54;;;;;;;31.00;8.35;;;;;;;;;;5011562;28;20026;-59
2021/09/27 06:41:21;;;;;;;25.25;8.20;;;;;;;;;;5091504;27;20047;-59
2021/09/27 06:43:47;;;;;;;36.78;8.90;;;;;;;;;;5098121;27;20029;-59
2021/09/27 06:46:14;;;;;;;16.05;9.75;;;;;;;;;;5032383;27;20377;-60
2021/09/27 06:48:40;;;;;;;24.73;10.77;;;;;;;;;;5092133;27;20463;-59
2021/09/27 06:51:06;;;;;;;28.27;10.95;;;;;;;;;;5111741;27;20121;-59
2021/09/27 06:53:32;;;;;;;24.83;10.48;;;;;;;;;;5031296;28;20025;-60
2021/09/27 06:55:59;;;;;;;21.98;10.77;;;;;;;;;;5024067;28;20022;-60
2021/09/27 06:58:25;;;;;;;20.42;12.23;;;;;;;;;;5031819;27;20418;-66
2021/09/27 07:00:52;;;;;;;15.55;10.70;;;;;;;;;;5026917;28;20022;-59
2021/09/27 07:03:18;;;;;;;17.45;10.70;;;;;;;;;;5011372;28;20037;-59
2021/09/27 07:05:44;;;;;;;16.73;10.07;;;;;;;;;;5011283;28;20022;-59
2021/09/27 07:08:10;;;;;;;18.80;10.75;;;;;;;;;;5010551;28;20030;-59
2021/09/27 07:10:36;;;;;;;17.02;10.38;;;;;;;;;;5021100;28;20046;-59
2021/09/27 07:13:03;;;;;;;25.23;10.52;;;;;;;;;;5013746;28;20033;-59
2021/09/27 07:15:29;;;;;;;20.35;11.30;;;;;;;;;;5019036;28;20095;-59
2021/09/27 07:17:55;;;;;;;18.33;9.82;;;;;;;;;;5081524;27;20019;-60
2021/09/27 07:20:25;;;;;;;15.18;9.60;;;;;;;;;;5081178;27;20061;-60
2021/09/27 07:22:51;;;;;;;35.83;9.32;;;;;;;;;;5087762;27;20019;-59
2021/09/27 07:25:17;;;;;;;16.60;8.38;;;;;;;;;;5079904;27;20038;-60
2021/09/27 07:27:44;;;;;;;16.88;9.57;;;;;;;;;;5104645;27;20019;-59
2021/09/27 07:30:11;;;;;;;13.65;8.68;;;;;;;;;;5087170;27;20058;-60
2021/09/27 07:32:37;;;;;;;12.13;8.25;;;;;;;;;;5074090;27;20033;-59
2021/09/27 07:35:04;;;;;;;10.07;8.07;;;;;;;;;;5084697;27;20356;-60
2021/09/27 07:37:30;;;;;;;12.30;8.02;;;;;;;;;;5062457;27;20025;-62
2021/09/27 07:39:56;;;;;;;10.55;7.75;;;;;;;;;;5083785;27;20023;-60
2021/09/27 07:42:22;;;;;;;14.32;8.27;;;;;;;;;;5030326;28;20036;-59
2021/09/27 07:44:48;;;;;;;19.45;7.70;;;;;;;;;;5030210;28;20049;-59
2021/09/27 07:47:14;;;;;;;15.80;8.45;;;;;;;;;;5030189;28;20060;-59
2021/09/27 07:49:40;;;;;;;9.90;7.45;;;;;;;;;;5029575;28;20449;-59
2021/09/27 07:52:06;;;;;;;23.25;8.38;;;;;;;;;;5110454;27;20035;-59
2021/09/27 07:54:32;;;;;;;12.95;7.90;;;;;;;;;;5096707;27;20093;-59
2021/09/27 07:56:58;;;;;;;12.00;7.78;;;;;;;;;;5030326;28;20057;-59
2021/09/27 07:59:24;;;;;;;10.80;7.30;;;;;;;;;;5038106;27;20056;-57
2021/09/27 08:01:50;;;;;;;10.70;8.60;;;;;;;;;;5078922;27;20035;-59
2021/09/27 08:04:17;;;;;;;13.18;7.95;;;;;;;;;;5086936;27;20017;-59
2021/09/27 08:06:44;;;;;;;9.18;7.15;;;;;;;;;;5087189;27;20034;-59
2021/09/27 08:09:10;;;;;;;15.88;7.97;;;;;;;;;;5108540;27;20062;-59
2021/09/27 08:11:38;;;;;;;14.40;8.15;;;;;;;;;;5029675;28;20069;-59
2021/09/27 08:14:04;;;;;;;12.82;7.55;;;;;;;;;;5030055;28;20460;-59
2021/09/27 08:16:31;;;;;;;11.63;8.40;;;;;;;;;;5044696;27;20073;-59
2021/09/27 08:18:57;;;;;;;16.83;8.00;;;;;;;;;;5073039;27;20034;-59
2021/09/27 08:21:23;;;;;;;12.68;8.20;;;;;;;;;;5102090;28;20079;-60
2021/09/27 08:23:49;;;;;;;9.40;8.23;;;;;;;;;;5058252;27;20029;-59
2021/09/27 08:26:16;;;;;;;11.25;8.40;;;;;;;;;;5029537;28;20060;-60
2021/09/27 08:28:43;;;;;;;12.30;9.10;;;;;;;;;;5029912;28;20059;-59
2021/09/27 08:31:11;;;;;;;12.65;9.30;;;;;;;;;;5029520;28;20041;-60
2021/09/27 08:33:38;;;;;;;14.98;10.07;;;;;;;;;;5029761;28;20026;-60
2021/09/27 08:36:05;;;;;;;18.38;10.85;;;;;;;;;;5029613;28;20051;-60
2021/09/27 08:38:37;;;;;;;14.77;10.95;;;;;;;;;;5029812;28;20029;-60
2021/09/27 08:41:19;;;;;;;14.25;10.80;;;;;;;;;;5084473;28;20033;-59
2021/09/27 08:44:03;;;;;;;16.38;12.02;;;;;;;;;;5133750;28;20020;-60
2021/09/27 08:46:38;;;;;;;20.25;12.32;;;;;;;;;;5133617;28;20031;-59
2021/09/27 08:49:04;;;;;;;18.25;12.50;;;;;;;;;;5133518;28;20794;-60
2021/09/27 08:51:33;;;;;;;17.80;12.88;;;;;;;;;;5133355;27;20139;-59
2021/09/27 08:53:59;;;;;;;19.88;12.10;;;;;;;;;;5133286;28;20024;-59
2021/09/27 08:56:25;;;;;;;15.00;11.43;;;;;;;;;;5133391;28;20050;-59
2021/09/27 08:58:51;;;;;;;15.95;11.90;;;;;;;;;;5133399;28;20466;-59
2021/09/27 09:01:19;;;;;;;17.92;12.55;;;;;;;;;;5136941;27;20048;-59
2021/09/27 09:04:03;;;;;;;22.08;12.65;;;;;;;;;;5137391;27;20076;-59
2021/09/27 09:06:46;;;;;;;16.95;12.32;;;;;;;;;;5137522;27;20053;-59
2021/09/27 09:09:26;;;;;;;15.90;11.70;;;;;;;;;;5133076;27;20027;-60
2021/09/27 09:11:52;;;;;;;20.33;12.15;;;;;;;;;;5076551;27;20034;-60
2021/09/27 09:14:29;;;;;;;15.88;11.82;;;;;;;;;;5093613;27;20020;-59
2021/09/27 09:16:55;;;;;;;19.88;11.90;;;;;;;;;;5077676;27;20041;-60
2021/09/27 09:19:24;;;;;;;19.00;11.02;;;;;;;;;;5032578;28;20025;-58
2021/09/27 09:21:52;;;;;;;18.10;11.98;;;;;;;;;;5032569;28;20026;-60
2021/09/27 09:24:29;;;;;;;18.48;11.75;;;;;;;;;;5032234;28;20207;-59
2021/09/27 09:26:58;;;;;;;15.43;11.30;;;;;;;;;;5032594;28;20033;-59
2021/09/27 09:29:26;;;;;;;14.00;10.45;;;;;;;;;;5032692;28;20025;-59
2021/09/27 09:31:53;;;;;;;15.18;10.73;;;;;;;;;;5032672;28;20041;-59
2021/09/27 09:34:22;;;;;;;13.82;10.55;;;;;;;;;;5032284;28;20025;-59
2021/09/27 09:36:52;;;;;;;12.38;10.00;;;;;;;;;;5032247;28;20035;-59
2021/09/27 09:39:20;;;;;;;15.07;9.70;;;;;;;;;;5032570;28;20144;-59
2021/09/27 09:41:46;;;;;;;15.23;9.43;;;;;;;;;;5091375;27;20037;-60
2021/09/27 09:44:39;;;;;;;12.75;9.32;;;;;;;;;;5076999;27;20100;-59
2021/09/27 09:47:08;;;;;;;15.55;9.05;;;;;;;;;;5090002;27;20496;-59
2021/09/27 09:49:53;;;;;;;12.32;9.43;;;;;;;;;;5100397;28;20358;-59
2021/09/27 09:52:25;;;;;;;9.85;8.32;;;;;;;;;;5117772;27;20433;-60
2021/09/27 09:54:52;;;;;;;12.27;8.80;;;;;;;;;;5136550;27;20015;-59
2021/09/27 09:57:22;;;;;;;13.35;8.15;;;;;;;;;;5136510;27;20068;-60
2021/09/27 10:00:00;;;;;;;11.75;7.90;;;;;;;;;;5136682;27;20022;-59
2021/09/27 10:02:27;;;;;;;12.38;7.80;;;;;;;;;;5136499;27;20106;-60
2021/09/27 10:04:58;;;;;;;9.85;7.65;;;;;;;;;;5136167;27;20377;-59
2021/09/27 10:07:31;;;;;;;12.07;7.43;;;;;;;;;;5132747;27;20038;-60
2021/09/27 10:10:01;;;;;;;10.77;6.93;;;;;;;;;;5071697;27;20144;-60
2021/09/27 10:12:56;;;;;;;12.45;7.45;;;;;;;;;;5054758;27;20039;-59
2021/09/27 10:15:34;;;;;;;9.90;6.75;;;;;;;;;;5060063;27;20033;-59
2021/09/27 10:18:19;;;;;;;10.45;6.53;;;;;;;;;;5031689;28;20022;-59
2021/09/27 10:21:04;;;;;;;25.63;7.07;;;;;;;;;;5031631;28;20030;-58
2021/09/27 10:23:31;;;;;;;11.30;6.57;;;;;;;;;;5031457;28;20060;-59
2021/09/27 10:26:10;;;;;;;19.02;6.80;;;;;;;;;;5031346;28;20065;-59
2021/09/27 10:28:37;;;;;;;13.15;6.22;;;;;;;;;;5031562;28;20029;-59
2021/09/27 10:31:03;;;;;;;13.60;5.35;;;;;;;;;;5030931;28;20081;-60
2021/09/27 10:33:32;;;;;;;12.05;4.53;;;;;;;;;;5095460;28;20033;-59
2021/09/27 10:36:07;;;;;;;9.27;4.15;;;;;;;;;;5082550;28;20066;-59
2021/09/27 10:38:42;;;;;;;16.38;4.03;;;;;;;;;;5096443;28;20050;-59
2021/09/27 10:41:28;;;;;;;14.80;3.80;;;;;;;;;;5045003;27;20061;-60
2021/09/27 10:43:56;;;;;;;7.03;3.20;;;;;;;;;;5017449;28;20072;-58
2021/09/27 10:46:25;;;;;;;11.90;3.40;;;;;;;;;;5014168;28;20022;-59
2021/09/27 10:48:52;;;;;;;7.13;3.03;;;;;;;;;;5018484;28;20032;-60
2021/09/27 10:51:21;;;;;;;13.75;3.40;;;;;;;;;;5060926;27;20091;-59
2021/09/27 10:53:53;;;;;;;5.13;3.15;;;;;;;;;;5092727;28;20360;-59
2021/09/27 10:56:25;;;;;;;10.40;3.58;;;;;;;;;;5022400;28;20075;-58
2021/09/27 10:58:56;;;;;;;11.88;3.05;;;;;;;;;;5022663;28;20030;-59
2021/09/27 11:01:40;;;;;;;12.52;3.30;;;;;;;;;;5014672;28;20034;-59
2021/09/27 11:04:10;;;;;;;8.95;2.92;;;;;;;;;;5011048;28;20022;-62
2021/09/27 11:06:42;;;;;;;7.32;3.13;;;;;;;;;;5030787;27;20031;-59
2021/09/27 11:09:12;;;;;;;7.75;2.92;;;;;;;;;;5087828;27;20046;-59
2021/09/27 11:11:40;;;;;;;12.98;2.78;;;;;;;;;;5071361;27;20043;-59
2021/09/27 11:14:21;;;;;;;7.28;2.55;;;;;;;;;;5082047;27;20349;-59
2021/09/27 11:16:53;;;;;;;13.43;3.33;;;;;;;;;;5071755;27;20025;-59
2021/09/27 11:19:38;;;;;;;6.95;2.95;;;;;;;;;;5023383;27;20026;-59
2021/09/27 11:22:17;;;;;;;5.25;2.25;;;;;;;;;;5043702;27;20381;-59
2021/09/27 11:24:43;;;;;;;12.65;2.55;;;;;;;;;;5029268;28;20045;-59
2021/09/27 11:27:15;;;;;;;10.90;2.78;;;;;;;;;;5030370;28;20040;-59
2021/09/27 11:29:58;;;;;;;9.73;2.75;;;;;;;;;;5030438;28;20037;-59
2021/09/27 11:32:30;;;;;;;;;;;;;;;;;;5030795;28;20488;-60
2021/09/27 11:35:02;;;;;;;9.98;2.85;;;;;;;;;;5030183;28;20398;-59
2021/09/27 11:37:48;;;;;;;5.63;2.20;;;;;;;;;;5030315;28;20026;-59
2021/09/27 11:40:26;;;;;;;10.25;2.33;;;;;;;;;;5046988;27;20023;-59
2021/09/27 11:43:05;;;;;;;6.80;2.75;;;;;;;;;;5134388;27;20102;-59
2021/09/27 11:45:38;;;;;;;9.45;2.33;;;;;;;;;;5134199;27;20088;-59
2021/09/27 11:48:09;;;;;;;9.18;2.13;;;;;;;;;;5090099;27;20029;-59
2021/09/27 11:50:51;;;;;;;8.05;2.45;;;;;;;;;;5080790;27;20347;-59
2021/09/27 11:53:46;;;;;;;16.85;2.83;;;;;;;;;;5084161;27;20113;-59
2021/09/27 11:56:27;;;;;;;7.45;2.70;;;;;;;;;;5055863;27;20037;-59
2021/09/27 11:58:57;;;;;;;6.35;2.92;;;;;;;;;;5030250;28;20082;-59
2021/09/27 12:01:33;;;;;;;7.32;2.70;;;;;;;;;;5029850;28;20468;-60
2021/09/27 12:04:04;;;;;;;7.47;3.17;;;;;;;;;;5030444;28;20032;-59
2021/09/27 12:06:37;;;;;;;11.93;2.75;;;;;;;;;;5097916;28;20044;-58
2021/09/27 12:09:03;;;;;;;;;;;;;;;;;;5030408;28;20029;-59
2021/09/27 12:11:29;;;;;;;6.53;2.67;;;;;;;;;;5098006;28;19920;-60
2021/09/27 12:14:00;;;;;;;6.40;2.55;;;;;;;;;;5029854;28;20464;-59
2021/09/27 12:16:38;;;;;;;6.32;2.42;;;;;;;;;;5029862;28;20032;-59
2021/09/27 12:19:22;;;;;;;7.55;2.35;;;;;;;;;;5030041;28;20078;-60
2021/09/27 12:21:56;;;;;;;4.60;2.97;;;;;;;;;;5029740;28;20061;-60
2021/09/27 12:24:26;;;;;;;5.68;2.70;;;;;;;;;;5029601;28;20018;-59
2021/09/27 12:27:03;;;;;;;8.73;3.45;;;;;;;;;;5029830;28;20034;-60
2021/09/27 12:29:29;;;;;;;7.00;3.50;;;;;;;;;;5097974;28;20633;-59
2021/09/27 12:31:57;;;;;;;14.90;3.55;;;;;;;;;;5097637;28;20068;-59
2021/09/27 12:34:25;;;;;;;10.32;3.97;;;;;;;;;;5030298;28;20017;-59
2021/09/27 12:36:52;;;;;;;12.73;3.85;;;;;;;;;;5036029;28;20029;-59
2021/09/27 12:39:22;;;;;;;13.05;4.03;;;;;;;;;;5036142;28;20101;-59
2021/09/27 12:41:48;;;;;;;10.85;3.85;;;;;;;;;;5036022;28;20078;-59
2021/09/27 12:44:16;;;;;;;9.77;2.80;;;;;;;;;;5036011;28;20028;-59
2021/09/27 12:46:44;;;;;;;9.18;3.10;;;;;;;;;;5080377;27;20037;-59
2021/09/27 12:49:11;;;;;;;9.18;2.95;;;;;;;;;;5096825;27;20026;-59
2021/09/27 12:51:41;;;;;;;5.90;2.50;;;;;;;;;;5114817;27;20061;-59
2021/09/27 12:54:13;;;;;;;9.50;2.75;;;;;;;;;;5080062;27;20121;-59
2021/09/27 12:56:39;;;;;;;10.05;2.20;;;;;;;;;;5079650;27;20025;-59
2021/09/27 12:59:09;;;;;;;8.77;2.03;;;;;;;;;;5110664;27;20104;-59
2021/09/27 13:01:38;;;;;;;6.05;1.67;;;;;;;;;;5140220;27;20106;-59
2021/09/27 13:04:11;;;;;;;2.28;1.02;;;;;;;;;;5139818;27;20054;-59
2021/09/27 13:06:47;;;;;;;5.53;1.20;;;;;;;;;;5140201;27;20027;-59
2021/09/27 13:09:20;;;;;;;3.40;1.00;;;;;;;;;;5140016;27;20011;-59
2021/09/27 13:11:51;;;;;;;4.13;0.90;;;;;;;;;;5096892;27;20394;-59
2021/09/27 13:14:22;;;;;;;2.00;0.90;;;;;;;;;;5035730;28;20013;-59
2021/09/27 13:16:52;;;;;;;1.73;1.00;;;;;;;;;;5035598;28;20036;-59
2021/09/27 13:19:37;;;;;;;4.70;1.13;;;;;;;;;;5035621;28;20017;-59
2021/09/27 13:22:03;;;;;;;1.95;0.82;;;;;;;;;;5035427;28;20052;-59
2021/09/27 13:24:30;;;;;;;5.88;1.20;;;;;;;;;;5035589;28;20072;-59
2021/09/27 13:27:02;;;;;;;2.55;1.00;;;;;;;;;;5035631;28;20029;-59
2021/09/27 13:29:31;;;;;;;4.43;1.20;;;;;;;;;;5035454;28;20032;-57
2021/09/27 13:32:00;;;;;;;2.95;1.10;;;;;;;;;;5035459;28;20150;-59
2021/09/27 13:34:40;;;;;;;1.88;1.20;;;;;;;;;;5035606;28;20445;-59
2021/09/27 13:37:18;;;;;;;2.92;1.67;;;;;;;;;;5035886;28;20025;-58
2021/09/27 13:39:45;;;;;;;3.55;1.10;;;;;;;;;;5035384;28;20427;-59
2021/09/27 13:42:11;;;;;;;2.30;1.20;;;;;;;;;;5015565;28;20025;-59
2021/09/27 13:44:37;;;;;;;1.65;1.00;;;;;;;;;;5015387;28;20109;-59
2021/09/27 13:47:05;;;;;;;3.38;1.00;;;;;;;;;;5012547;28;20022;-59
2021/09/27 13:49:32;;;;;;;4.53;1.20;;;;;;;;;;5012320;28;20109;-59
2021/09/27 13:51:58;;;;;;;4.85;1.27;;;;;;;;;;5100926;27;20410;-59
2021/09/27 13:54:24;;;;;;;4.28;1.35;;;;;;;;;;5136212;27;20027;-59
2021/09/27 13:56:50;;;;;;;8.18;1.80;;;;;;;;;;5044021;27;20026;-59
2021/09/27 13:59:16;;;;;;;7.18;1.70;;;;;;;;;;5031903;28;20113;-59
2021/09/27 14:01:42;;;;;;;14.70;2.10;;;;;;;;;;5031678;28;20025;-59
2021/09/27 14:04:08;;;;;;;11.70;1.75;;;;;;;;;;5031624;28;20036;-59
2021/09/27 14:06:34;;;;;;;17.38;2.20;;;;;;;;;;5045490;27;20076;-60
2021/09/27 14:09:01;;;;;;;13.32;2.38;;;;;;;;;;5078209;27;20009;-59
2021/09/27 14:11:27;;;;;;;19.13;2.22;;;;;;;;;;5077910;27;20033;-59
2021/09/27 14:13:53;;;;;;;15.68;2.42;;;;;;;;;;5092585;27;20385;-59
2021/09/27 14:16:20;;;;;;;21.58;3.10;;;;;;;;;;5092617;27;20057;-58
2021/09/27 14:18:47;;;;;;;17.05;2.53;;;;;;;;;;5064076;27;20098;-60
2021/09/27 14:21:14;;;;;;;19.13;2.35;;;;;;;;;;5079817;27;20370;-59
2021/09/27 14:23:40;;;;;;;16.83;1.80;;;;;;;;;;5088689;27;20557;-59
2021/09/27 14:26:07;;;;;;;13.52;2.30;;;;;;;;;;5074164;27;20043;-59
2021/09/27 14:28:34;;;;;;;14.65;2.20;;;;;;;;;;5088740;27;20016;-59
2021/09/27 14:31:00;;;;;;;17.52;2.08;;;;;;;;;;5088769;27;20045;-59
2021/09/27 14:33:29;;;;;;;13.63;2.33;;;;;;;;;;5105960;27;20060;-59
2021/09/27 14:35:55;;;;;;;16.75;2.00;;;;;;;;;;5135408;27;20011;-59
2021/09/27 14:38:21;;;;;;;16.48;1.92;;;;;;;;;;5135419;27;20031;-59
2021/09/27 14:40:47;;;;;;;11.88;1.80;;;;;;;;;;5099686;28;20030;-59
2021/09/27 14:43:13;;;;;;;14.70;1.58;;;;;;;;;;5031367;28;20053;-59
2021/09/27 14:45:39;;;;;;;12.30;1.48;;;;;;;;;;5031406;28;20060;-59
2021/09/27 14:48:06;;;;;;;11.60;1.90;;;;;;;;;;5031213;28;20025;-59
2021/09/27 14:50:36;;;;;;;13.15;1.70;;;;;;;;;;5044086;27;20046;-59
2021/09/27 14:53:02;;;;;;;8.43;1.42;;;;;;;;;;5135693;27;20030;-59
2021/09/27 14:55:29;;;;;;;12.35;1.50;;;;;;;;;;5099434;28;20384;-60
2021/09/27 14:57:56;;;;;;;10.05;1.35;;;;;;;;;;5030753;28;20025;-58
2021/09/27 15:00:24;;;;;;;11.13;1.40;;;;;;;;;;5030978;28;20480;-59
2021/09/27 15:02:52;;;;;;;12.70;1.45;;;;;;;;;;5030646;28;20527;-59